createdAt,value
2019-05-22T00:00:30.771Z,54.13
2019-05-22T00:03:04.021Z,49.80
2019-05-22T00:05:33.008Z,47.93
2019-05-22T00:08:05.056Z,46.93
2019-05-22T00:10:34.737Z,48.37
2019-05-22T00:13:04.647Z,45.07
2019-05-22T00:15:33.441Z,49.63
2019-05-22T00:18:02.738Z,42.30
2019-05-22T00:20:31.551Z,40.40
2019-05-22T00:23:03.211Z,46.73
2019-05-22T00:25:33.407Z,45.10
2019-05-22T00:28:04.165Z,47.60
2019-05-22T00:30:33.473Z,39.60
2019-05-22T00:33:02.193Z,44.80
2019-05-22T00:35:31.455Z,47.70
2019-05-22T00:38:01.413Z,52.17
2019-05-22T00:40:31.646Z,54.77
2019-05-22T00:43:04.105Z,46.43
2019-05-22T00:45:31.516Z,48.80
2019-05-22T00:48:00.353Z,46.20
2019-05-22T00:50:32.853Z,44.90
2019-05-22T00:53:03.154Z,49.50
2019-05-22T00:55:34.494Z,44.43
2019-05-22T00:58:05.961Z,48.63
2019-05-22T01:00:36.155Z,45.70
2019-05-22T01:03:06.161Z,43.53
2019-05-22T01:05:36.447Z,40.83
2019-05-22T01:08:06.367Z,40.27
2019-05-22T01:10:35.932Z,47.03
2019-05-22T01:13:04.380Z,48.03
2019-05-22T01:15:32.782Z,46.53
2019-05-22T01:18:04.550Z,47.67
2019-05-22T01:20:34.525Z,52.67
2019-05-22T01:23:02.956Z,49.47
2019-05-22T01:25:31.914Z,47.90
2019-05-22T01:28:02.053Z,55.27
2019-05-22T01:30:41.653Z,50.60
2019-05-22T01:33:12.086Z,54.47
2019-05-22T01:35:55.000Z,62.13
2019-05-22T01:38:23.396Z,50.40
2019-05-22T01:41:05.533Z,55.00
2019-05-22T01:43:35.156Z,56.30
2019-05-22T01:46:03.650Z,52.00
2019-05-22T01:48:39.465Z,53.40
2019-05-22T01:51:09.654Z,59.33
2019-05-22T01:53:40.559Z,53.43
2019-05-22T01:56:11.484Z,50.97
2019-05-22T01:58:42.398Z,50.53
2019-05-22T02:01:16.797Z,50.93
2019-05-22T02:03:47.091Z,49.30
2019-05-22T02:06:17.879Z,49.10
2019-05-22T02:08:53.305Z,45.90
2019-05-22T02:11:23.422Z,49.23
2019-05-22T02:13:54.937Z,51.93
2019-05-22T02:16:26.309Z,46.93
2019-05-22T02:18:54.580Z,52.73
2019-05-22T02:21:24.001Z,51.43
2019-05-22T02:23:52.587Z,52.97
2019-05-22T02:26:20.872Z,46.90
2019-05-22T02:28:49.583Z,49.27
2019-05-22T02:31:20.092Z,43.80
2019-05-22T02:34:04.996Z,48.07
2019-05-22T02:36:37.174Z,47.90
2019-05-22T02:39:13.670Z,44.83
2019-05-22T02:41:54.258Z,44.63
2019-05-22T02:44:23.700Z,47.97
2019-05-22T02:46:53.247Z,41.77
2019-05-22T02:49:23.061Z,41.93
2019-05-22T02:51:53.778Z,45.67
2019-05-22T02:54:22.294Z,36.63
2019-05-22T02:56:51.330Z,39.67
2019-05-22T02:59:19.752Z,40.30
2019-05-22T03:01:48.086Z,43.67
2019-05-22T03:04:18.211Z,39.40
2019-05-22T03:06:46.493Z,44.83
2019-05-22T03:09:18.386Z,46.20
2019-05-22T03:11:49.814Z,40.50
2019-05-22T03:14:20.101Z,49.90
2019-05-22T03:16:52.083Z,46.20
2019-05-22T03:19:34.023Z,46.67
2019-05-22T03:22:17.421Z,53.23
2019-05-22T03:24:46.279Z,51.80
2019-05-22T03:27:14.818Z,48.00
2019-05-22T03:29:52.400Z,51.37
2019-05-22T03:32:21.537Z,53.13
2019-05-22T03:34:50.451Z,44.13
2019-05-22T03:37:19.556Z,42.53
2019-05-22T03:39:48.843Z,47.10
2019-05-22T03:42:18.948Z,40.70
2019-05-22T03:44:47.553Z,42.43
2019-05-22T03:47:16.326Z,44.07
2019-05-22T03:49:45.638Z,41.50
2019-05-22T03:52:15.056Z,35.70
2019-05-22T03:54:43.634Z,38.37
2019-05-22T03:57:13.162Z,40.80
2019-05-22T03:59:41.441Z,40.00
2019-05-22T04:02:10.401Z,33.83
2019-05-22T04:04:40.462Z,38.50
2019-05-22T04:07:12.116Z,34.43
2019-05-22T04:09:42.982Z,35.77
2019-05-22T04:12:11.666Z,35.00
2019-05-22T04:14:40.299Z,36.23
2019-05-22T04:17:10.578Z,34.80
2019-05-22T04:19:49.236Z,34.37
2019-05-22T04:22:11.145Z,42.40
2019-05-22T04:24:42.417Z,41.40
2019-05-22T04:27:12.422Z,37.23
2019-05-22T04:29:42.285Z,40.60
2019-05-22T04:32:14.098Z,40.53
2019-05-22T04:34:44.814Z,41.70
2019-05-22T04:37:15.051Z,43.17
2019-05-22T04:39:46.024Z,37.00
2019-05-22T04:42:16.010Z,39.70
2019-05-22T04:45:09.001Z,37.70
2019-05-22T04:47:37.738Z,38.33
2019-05-22T04:50:08.590Z,40.63
2019-05-22T04:52:37.109Z,37.30
2019-05-22T04:55:09.055Z,41.10
2019-05-22T04:57:37.342Z,41.50
2019-05-22T05:00:08.809Z,40.10
2019-05-22T05:02:38.397Z,42.13
2019-05-22T05:05:09.396Z,39.70
2019-05-22T05:07:39.270Z,39.97
2019-05-22T05:10:09.387Z,42.90
2019-05-22T05:12:39.294Z,38.80
2019-05-22T05:15:08.052Z,43.40
2019-05-22T05:17:36.857Z,44.03
2019-05-22T05:20:21.366Z,43.53
2019-05-22T05:22:42.088Z,50.53
2019-05-22T05:25:10.600Z,41.97
2019-05-22T05:27:38.933Z,43.87
2019-05-22T05:30:07.342Z,46.70
2019-05-22T05:32:36.796Z,46.10
2019-05-22T05:35:08.558Z,48.47
2019-05-22T05:37:38.074Z,49.43
2019-05-22T05:40:09.696Z,45.40
2019-05-22T05:42:38.251Z,45.93
2019-05-22T05:45:12.776Z,46.43
2019-05-22T05:47:39.392Z,40.90
2019-05-22T05:50:10.515Z,39.83
2019-05-22T05:52:40.410Z,47.30
2019-05-22T05:55:09.315Z,45.60
2019-05-22T05:57:45.342Z,43.83
2019-05-22T06:00:27.793Z,46.90
2019-05-22T06:03:02.455Z,46.63
2019-05-22T06:05:30.739Z,44.90
2019-05-22T06:07:59.017Z,42.30
2019-05-22T06:10:31.498Z,39.60
2019-05-22T06:13:00.520Z,39.87
2019-05-22T06:15:45.809Z,35.57
2019-05-22T06:18:14.383Z,37.80
2019-05-22T06:20:42.656Z,46.23
2019-05-22T06:23:29.398Z,41.13
2019-05-22T06:25:58.290Z,38.90
2019-05-22T06:28:31.314Z,34.20
2019-05-22T06:31:02.098Z,34.93
2019-05-22T06:33:32.799Z,35.20
2019-05-22T06:36:04.597Z,37.70
2019-05-22T06:38:52.264Z,37.00
2019-05-22T06:41:23.244Z,37.47
2019-05-22T06:44:11.350Z,37.47
2019-05-22T06:46:46.284Z,38.07
2019-05-22T06:49:35.735Z,35.47
2019-05-22T06:52:05.535Z,30.27
2019-05-22T06:54:34.061Z,30.07
2019-05-22T06:57:02.462Z,26.17
2019-05-22T06:59:30.894Z,26.60
2019-05-22T07:02:01.654Z,24.87
2019-05-22T07:04:30.370Z,25.60
2019-05-22T07:06:59.483Z,25.10
2019-05-22T07:09:29.499Z,25.00
2019-05-22T07:11:58.751Z,25.17
2019-05-22T07:14:27.413Z,22.43
2019-05-22T07:16:56.105Z,22.53
2019-05-22T07:19:24.933Z,24.33
2019-05-22T07:21:53.239Z,22.77
2019-05-22T07:24:22.679Z,18.37
2019-05-22T07:26:52.585Z,19.33
2019-05-22T07:29:21.227Z,20.33
2019-05-22T07:31:50.222Z,17.53
2019-05-22T07:34:18.475Z,18.23
2019-05-22T07:36:46.765Z,18.63
2019-05-22T07:39:15.290Z,17.40
2019-05-22T07:41:43.925Z,16.73
2019-05-22T07:44:12.220Z,18.47
2019-05-22T07:46:40.570Z,18.50
2019-05-22T07:49:08.963Z,16.77
2019-05-22T07:51:50.497Z,16.90
2019-05-22T07:54:07.425Z,16.80
2019-05-22T07:56:36.442Z,17.80
2019-05-22T07:59:05.165Z,17.03
2019-05-22T08:01:34.515Z,17.33
2019-05-22T08:04:04.583Z,16.23
2019-05-22T08:06:33.084Z,20.77
2019-05-22T08:09:03.778Z,17.53
2019-05-22T08:11:32.467Z,18.03
2019-05-22T08:14:00.850Z,16.77
2019-05-22T08:16:29.281Z,18.70
2019-05-22T08:18:57.816Z,19.80
2019-05-22T08:21:26.530Z,20.13
2019-05-22T08:23:54.850Z,18.67
2019-05-22T08:26:24.744Z,18.60
2019-05-22T08:28:53.070Z,19.77
2019-05-22T08:31:22.949Z,16.53
2019-05-22T08:33:51.389Z,16.73
2019-05-22T08:36:19.752Z,15.53
2019-05-22T08:38:48.095Z,16.67
2019-05-22T08:41:19.935Z,14.83
2019-05-22T08:44:14.407Z,13.90
2019-05-22T08:46:19.904Z,13.40
2019-05-22T08:48:49.461Z,13.20
2019-05-22T08:51:18.517Z,13.10
2019-05-22T08:53:48.735Z,11.93
2019-05-22T08:56:17.562Z,11.90
2019-05-22T08:58:46.307Z,11.63
2019-05-22T09:01:16.119Z,9.57
2019-05-22T09:03:45.319Z,9.00
2019-05-22T09:06:14.003Z,7.90
2019-05-22T09:08:42.351Z,9.50
2019-05-22T09:11:11.377Z,7.90
2019-05-22T09:13:40.188Z,7.93
2019-05-22T09:16:09.476Z,7.87
2019-05-22T09:18:37.800Z,8.03
2019-05-22T09:21:07.787Z,7.13
2019-05-22T09:23:36.796Z,5.80
2019-05-22T09:26:06.514Z,6.10
2019-05-22T09:28:34.760Z,5.80
2019-05-22T09:31:03.162Z,7.00
2019-05-22T09:33:32.121Z,7.57
2019-05-22T09:36:01.139Z,6.40
2019-05-22T09:38:31.036Z,7.60
2019-05-22T09:40:59.773Z,7.60
2019-05-22T09:43:30.364Z,6.90
2019-05-22T09:45:59.739Z,7.80
2019-05-22T09:48:28.139Z,9.33
2019-05-22T09:50:57.266Z,8.73
2019-05-22T09:53:26.138Z,11.33
2019-05-22T09:55:54.778Z,11.13
2019-05-22T09:58:23.339Z,10.10
2019-05-22T10:00:52.116Z,10.77
2019-05-22T10:03:21.220Z,10.83
2019-05-22T10:05:49.829Z,12.60
2019-05-22T10:08:18.136Z,12.03
2019-05-22T10:10:47.264Z,14.10
2019-05-22T10:13:15.636Z,15.00
2019-05-22T10:15:44.227Z,14.00
2019-05-22T10:18:13.806Z,13.90
2019-05-22T10:20:42.146Z,14.23
2019-05-22T10:23:15.996Z,15.03
2019-05-22T10:25:41.973Z,15.27
2019-05-22T10:28:10.599Z,14.93
2019-05-22T10:30:38.944Z,14.70
2019-05-22T10:33:08.325Z,15.77
2019-05-22T10:35:37.417Z,16.20
2019-05-22T10:38:07.366Z,15.50
2019-05-22T10:40:36.587Z,17.30
2019-05-22T10:43:05.080Z,14.17
2019-05-22T10:45:34.532Z,15.17
2019-05-22T10:48:03.073Z,13.90
2019-05-22T10:50:32.597Z,17.90
2019-05-22T10:53:00.909Z,22.20
2019-05-22T10:55:30.196Z,17.47
2019-05-22T10:57:58.527Z,16.10
2019-05-22T11:00:26.968Z,15.70
2019-05-22T11:02:55.672Z,23.50
2019-05-22T11:05:24.582Z,17.50
2019-05-22T11:07:53.032Z,16.17
2019-05-22T11:10:23.028Z,16.83
2019-05-22T11:12:52.944Z,16.83
2019-05-22T11:15:22.594Z,18.07
2019-05-22T11:17:52.473Z,16.13
2019-05-22T11:20:21.941Z,16.23
2019-05-22T11:22:50.195Z,18.87
2019-05-22T11:25:22.404Z,15.90
2019-05-22T11:27:52.578Z,16.73
2019-05-22T11:30:21.226Z,15.97
2019-05-22T11:32:51.004Z,16.97
2019-05-22T11:35:21.418Z,15.70
2019-05-22T11:37:50.060Z,16.43
2019-05-22T11:40:18.825Z,17.60
2019-05-22T11:42:47.886Z,16.33
2019-05-22T11:45:17.140Z,16.43
2019-05-22T11:47:45.882Z,16.60
2019-05-22T11:50:16.615Z,16.33
2019-05-22T11:52:45.116Z,16.03
2019-05-22T11:55:14.194Z,17.03
2019-05-22T11:57:43.523Z,16.10
2019-05-22T12:00:13.636Z,14.57
2019-05-22T12:02:45.112Z,15.03
2019-05-22T12:05:17.660Z,16.40
2019-05-22T12:07:54.082Z,14.60
2019-05-22T12:10:24.425Z,15.93
2019-05-22T12:12:53.644Z,16.00
2019-05-22T12:15:25.182Z,16.03
2019-05-22T12:17:55.052Z,17.20
2019-05-22T12:20:26.284Z,16.07
2019-05-22T12:22:57.348Z,16.00
2019-05-22T12:25:26.348Z,17.90
2019-05-22T12:27:55.040Z,17.67
2019-05-22T12:30:26.106Z,16.57
2019-05-22T12:32:59.094Z,16.07
2019-05-22T12:35:28.287Z,15.20
2019-05-22T12:37:57.460Z,16.70
2019-05-22T12:40:29.753Z,15.60
2019-05-22T12:43:00.320Z,15.53
2019-05-22T12:45:32.018Z,14.60
2019-05-22T12:48:01.726Z,13.63
2019-05-22T12:50:31.382Z,13.80
2019-05-22T12:53:02.102Z,17.73
2019-05-22T12:55:33.135Z,14.67
2019-05-22T12:58:03.455Z,15.93
2019-05-22T13:00:33.605Z,14.03
2019-05-22T13:03:03.439Z,14.87
2019-05-22T13:05:34.087Z,15.97
2019-05-22T13:08:02.523Z,14.73
2019-05-22T13:10:31.773Z,15.97
2019-05-22T13:13:00.088Z,13.07
2019-05-22T13:15:30.749Z,15.20
2019-05-22T13:17:59.769Z,13.90
2019-05-22T13:20:42.593Z,14.00
2019-05-22T13:23:07.765Z,12.90
2019-05-22T13:25:38.904Z,14.37
2019-05-22T13:28:17.861Z,13.77
2019-05-22T13:30:56.533Z,13.13
2019-05-22T13:33:31.642Z,13.37
2019-05-22T13:36:00.349Z,13.93
2019-05-22T13:38:28.789Z,14.50
2019-05-22T13:40:57.576Z,13.63
2019-05-22T13:43:27.687Z,13.53
2019-05-22T13:45:58.055Z,15.00
2019-05-22T13:48:30.407Z,19.63
2019-05-22T13:51:00.128Z,14.17
2019-05-22T13:53:29.536Z,15.80
2019-05-22T13:56:01.252Z,17.93
2019-05-22T13:58:29.685Z,14.70
2019-05-22T14:00:58.178Z,16.30
2019-05-22T14:03:26.546Z,17.23
2019-05-22T14:05:55.781Z,17.60
2019-05-22T14:08:28.065Z,14.87
2019-05-22T14:10:56.437Z,15.37
2019-05-22T14:13:26.541Z,16.70
2019-05-22T14:15:57.182Z,15.40
2019-05-22T14:18:26.141Z,17.20
2019-05-22T14:20:54.801Z,18.07
2019-05-22T14:23:23.206Z,16.63
2019-05-22T14:25:52.211Z,19.00
2019-05-22T14:28:21.445Z,18.20
2019-05-22T14:30:49.730Z,16.50
2019-05-22T14:33:20.103Z,18.80
2019-05-22T14:35:52.476Z,16.03
2019-05-22T14:38:23.637Z,16.00
2019-05-22T14:40:52.115Z,18.30
2019-05-22T14:43:20.379Z,17.20
2019-05-22T14:45:49.684Z,17.83
2019-05-22T14:48:18.967Z,17.73
2019-05-22T14:50:49.422Z,18.97
2019-05-22T14:53:18.193Z,17.60
2019-05-22T14:55:47.087Z,17.00
2019-05-22T14:58:15.434Z,16.50
2019-05-22T15:00:45.748Z,16.00
2019-05-22T15:03:14.270Z,16.30
2019-05-22T15:05:42.572Z,16.13
2019-05-22T15:08:11.101Z,16.20
2019-05-22T15:10:39.811Z,17.03
2019-05-22T15:13:08.960Z,16.87
2019-05-22T15:15:40.545Z,14.80
2019-05-22T15:18:07.761Z,15.73
2019-05-22T15:20:53.516Z,15.50
2019-05-22T15:23:21.971Z,16.30
2019-05-22T15:25:51.843Z,15.43
2019-05-22T15:28:20.795Z,16.70
2019-05-22T15:30:49.687Z,15.60
2019-05-22T15:33:19.047Z,14.67
2019-05-22T15:35:48.782Z,15.43
2019-05-22T15:38:18.139Z,14.90
2019-05-22T15:40:46.774Z,15.47
2019-05-22T15:43:15.833Z,15.90
2019-05-22T15:45:44.311Z,16.80
2019-05-22T15:48:15.724Z,15.77
2019-05-22T15:50:57.820Z,15.00
2019-05-22T15:53:48.566Z,15.67
2019-05-22T15:56:17.694Z,15.37
2019-05-22T15:58:51.640Z,14.47
2019-05-22T16:01:21.926Z,12.80
2019-05-22T16:03:51.226Z,13.47
2019-05-22T16:06:21.856Z,13.10
2019-05-22T16:08:50.753Z,12.17
2019-05-22T16:11:20.265Z,10.13
2019-05-22T16:13:48.561Z,11.67
2019-05-22T16:16:20.266Z,10.80
2019-05-22T16:18:49.782Z,11.83
2019-05-22T16:21:18.687Z,10.53
2019-05-22T16:23:47.392Z,11.00
2019-05-22T16:26:16.713Z,10.60
2019-05-22T16:28:45.720Z,9.97
2019-05-22T16:31:14.710Z,10.90
2019-05-22T16:33:44.399Z,9.73
2019-05-22T16:36:14.258Z,9.10
2019-05-22T16:38:43.817Z,10.33
2019-05-22T16:41:12.638Z,9.37
2019-05-22T16:43:49.360Z,11.20
2019-05-22T16:46:14.909Z,8.00
2019-05-22T16:48:43.771Z,8.63
2019-05-22T16:51:15.389Z,9.17
2019-05-22T16:53:46.841Z,9.83
2019-05-22T16:56:15.584Z,9.17
2019-05-22T16:58:43.917Z,8.33
2019-05-22T17:01:12.335Z,9.73
2019-05-22T17:03:41.406Z,8.57
2019-05-22T17:06:09.760Z,8.77
2019-05-22T17:08:38.281Z,8.93
2019-05-22T17:11:07.275Z,9.87
2019-05-22T17:13:36.808Z,8.97
2019-05-22T17:16:06.734Z,9.63
2019-05-22T17:18:46.579Z,8.90
2019-05-22T17:21:06.662Z,9.40
2019-05-22T17:23:35.102Z,9.47
2019-05-22T17:26:04.395Z,9.07
2019-05-22T17:28:32.802Z,9.33
2019-05-22T17:31:01.411Z,10.00
2019-05-22T17:33:30.592Z,10.10
2019-05-22T17:36:00.370Z,9.87
2019-05-22T17:38:29.300Z,9.73
2019-05-22T17:40:59.737Z,8.70
2019-05-22T17:43:29.589Z,8.77
2019-05-22T17:45:58.399Z,8.50
2019-05-22T17:48:27.555Z,8.70
2019-05-22T17:50:56.756Z,8.70
2019-05-22T17:53:25.837Z,10.37
2019-05-22T17:55:54.622Z,9.17
2019-05-22T17:58:27.269Z,9.43
2019-05-22T18:00:55.985Z,9.20
2019-05-22T18:03:25.575Z,8.93
2019-05-22T18:05:53.924Z,9.33
2019-05-22T18:08:23.467Z,9.40
2019-05-22T18:10:52.112Z,8.50
2019-05-22T18:13:21.235Z,8.00
2019-05-22T18:15:51.140Z,8.43
2019-05-22T18:18:24.468Z,7.50
2019-05-22T18:20:57.268Z,8.13
2019-05-22T18:23:25.537Z,7.60
2019-05-22T18:25:53.935Z,8.87
2019-05-22T18:28:22.342Z,8.20
2019-05-22T18:30:50.707Z,8.50
2019-05-22T18:33:23.382Z,8.67
2019-05-22T18:35:56.721Z,8.60
2019-05-22T18:38:25.127Z,8.10
2019-05-22T18:40:53.499Z,8.40
2019-05-22T18:43:23.106Z,8.30
2019-05-22T18:45:51.844Z,8.30
2019-05-22T18:48:20.682Z,8.80
2019-05-22T18:50:48.931Z,8.37
2019-05-22T18:53:17.394Z,10.50
2019-05-22T18:55:45.733Z,9.60
2019-05-22T18:58:14.148Z,22.37
2019-05-22T19:00:42.522Z,54.93
2019-05-22T19:03:11.315Z,9.60
2019-05-22T19:05:39.634Z,8.57
2019-05-22T19:08:07.895Z,7.63
2019-05-22T19:10:37.344Z,9.10
2019-05-22T19:13:05.680Z,8.57
2019-05-22T19:15:34.012Z,9.00
2019-05-22T19:18:02.432Z,9.83
2019-05-22T19:20:30.811Z,9.10
2019-05-22T19:23:01.597Z,8.83
2019-05-22T19:25:45.984Z,9.03
2019-05-22T19:28:43.412Z,8.87
2019-05-22T19:31:05.598Z,9.50
2019-05-22T19:33:33.855Z,8.90
2019-05-22T19:36:02.230Z,10.10
2019-05-22T19:38:30.597Z,10.37
2019-05-22T19:40:59.259Z,10.70
2019-05-22T19:43:28.204Z,11.10
2019-05-22T19:45:56.615Z,10.43
2019-05-22T19:48:25.517Z,11.50
2019-05-22T19:50:54.268Z,11.70
2019-05-22T19:53:22.907Z,11.27
2019-05-22T19:55:51.667Z,10.80
2019-05-22T19:58:21.949Z,12.70
2019-05-22T20:00:50.892Z,11.80
2019-05-22T20:03:19.895Z,12.03
2019-05-22T20:05:48.667Z,12.90
2019-05-22T20:08:17.055Z,12.10
2019-05-22T20:10:45.416Z,12.43
2019-05-22T20:13:13.860Z,15.40
2019-05-22T20:15:42.515Z,10.87
2019-05-22T20:18:11.746Z,13.30
2019-05-22T20:20:40.664Z,12.87
2019-05-22T20:23:09.689Z,11.67
2019-05-22T20:25:38.157Z,12.40
2019-05-22T20:28:06.976Z,25.43
2019-05-22T20:30:35.850Z,13.80
2019-05-22T20:33:04.148Z,11.83
2019-05-22T20:35:32.532Z,13.83
2019-05-22T20:38:01.828Z,15.50
2019-05-22T20:40:30.429Z,13.30
2019-05-22T20:42:59.564Z,12.37
2019-05-22T20:45:29.699Z,13.70
2019-05-22T20:48:09.584Z,14.73
2019-05-22T20:50:38.201Z,13.70
2019-05-22T20:53:08.187Z,12.07
2019-05-22T20:55:38.508Z,12.90
2019-05-22T20:58:07.819Z,11.67
2019-05-22T21:00:36.594Z,13.20
2019-05-22T21:03:06.121Z,12.60
2019-05-22T21:05:35.811Z,12.27
2019-05-22T21:08:08.026Z,12.60
2019-05-22T21:10:36.737Z,12.43
2019-05-22T21:13:05.758Z,13.03
2019-05-22T21:15:35.160Z,12.90
2019-05-22T21:18:05.094Z,13.80
2019-05-22T21:20:33.908Z,12.90
2019-05-22T21:23:04.062Z,12.23
2019-05-22T21:25:33.520Z,12.77
2019-05-22T21:28:01.869Z,12.80
2019-05-22T21:30:30.248Z,11.67
2019-05-22T21:32:58.542Z,14.33
2019-05-22T21:35:27.287Z,13.80
2019-05-22T21:37:56.686Z,14.33
2019-05-22T21:40:25.131Z,12.90
2019-05-22T21:42:54.152Z,12.97
2019-05-22T21:45:22.798Z,12.47
2019-05-22T21:47:51.487Z,13.03
2019-05-22T21:50:20.320Z,13.23
2019-05-22T21:52:48.809Z,13.10
2019-05-22T21:55:18.297Z,12.07
2019-05-22T21:57:46.749Z,12.73
2019-05-22T22:00:40.616Z,13.67
2019-05-22T22:03:19.299Z,13.83
2019-05-22T22:05:48.205Z,12.37
2019-05-22T22:08:16.837Z,12.17
2019-05-22T22:10:45.126Z,12.90
2019-05-22T22:13:13.785Z,13.17
2019-05-22T22:15:43.806Z,12.20
2019-05-22T22:18:13.219Z,14.03
2019-05-22T22:20:42.969Z,12.53
2019-05-22T22:23:13.576Z,13.03
2019-05-22T22:25:42.598Z,13.47
2019-05-22T22:28:12.757Z,13.77
2019-05-22T22:30:45.641Z,14.20
2019-05-22T22:33:16.010Z,12.57
2019-05-22T22:35:44.843Z,12.70
2019-05-22T22:38:13.662Z,13.33
2019-05-22T22:40:44.030Z,12.60
2019-05-22T22:43:14.097Z,14.20
2019-05-22T22:45:48.092Z,13.20
2019-05-22T22:48:18.136Z,13.40
2019-05-22T22:50:47.814Z,13.13
2019-05-22T22:53:16.934Z,12.77
2019-05-22T22:55:45.257Z,11.77
2019-05-22T22:58:17.564Z,13.27
2019-05-22T23:00:46.722Z,13.23
2019-05-22T23:03:18.774Z,12.63
2019-05-22T23:05:48.690Z,13.20
2019-05-22T23:08:23.328Z,13.00
2019-05-22T23:10:52.839Z,12.30
2019-05-22T23:13:22.717Z,13.20
2019-05-22T23:15:51.863Z,12.33
2019-05-22T23:18:42.814Z,14.27
2019-05-22T23:21:11.712Z,12.20
2019-05-22T23:23:40.837Z,14.63
2019-05-22T23:26:09.256Z,12.20
2019-05-22T23:28:40.788Z,12.40
2019-05-22T23:31:09.724Z,12.40
2019-05-22T23:33:39.065Z,12.57
2019-05-22T23:36:08.791Z,12.70
2019-05-22T23:38:38.367Z,13.50
2019-05-22T23:41:07.824Z,13.40
2019-05-22T23:43:36.413Z,11.80
2019-05-22T23:46:06.404Z,12.20
2019-05-22T23:48:35.870Z,12.40
2019-05-22T23:51:06.035Z,13.10
2019-05-22T23:53:35.392Z,14.03
2019-05-22T23:56:04.618Z,12.33
2019-05-22T23:58:34.469Z,14.27
